Terminal Aerodrome Forecast
Issued by NWS

Home | Current Version | Previous Version | Text Only | Print | Product List | Glossary On
Versions: 1 2 3 4 5 6 7 8 9 10 11 12 13 14
000
FTUS44 KTSA 202337
TAFBVO
TAF
KBVO 202337Z 2100/2124 17009G16KT P6SM SKC
     FM210200 17010KT P6SM FEW035
     FM210500 18011G18KT P6SM BKN015
     FM211800 19014G22KT P6SM BKN025=

USA.gov is the U.S. government's official web portal to all federal, state and local government web resources and services.